sensor_id;sensor_type;location;lat;lon;timestamp;temperature;humidity
14317;DHT22;7242;50.858;6.586;2023-03-23T00:01:05;13.30;99.90
14317;DHT22;7242;50.858;6.586;2023-03-23T00:04:05;13.30;99.90
14317;DHT22;7242;50.858;6.586;2023-03-23T00:07:07;13.30;99.90
14317;DHT22;7242;50.858;6.586;2023-03-23T00:10:08;13.30;99.90
14317;DHT22;7242;50.858;6.586;2023-03-23T00:13:09;13.30;99.90
14317;DHT22;7242;50.858;6.586;2023-03-23T00:16:12;13.30;99.90
14317;DHT22;7242;50.858;6.586;2023-03-23T00:19:29;13.30;99.90
14317;DHT22;7242;50.858;6.586;2023-03-23T00:22:30;13.30;99.90
14317;DHT22;7242;50.858;6.586;2023-03-23T00:25:30;13.30;99.90
14317;DHT22;7242;50.858;6.586;2023-03-23T00:28:31;13.20;99.90
14317;DHT22;7242;50.858;6.586;2023-03-23T00:31:33;13.10;99.90
14317;DHT22;7242;50.858;6.586;2023-03-23T00:34:36;13.30;99.90
14317;DHT22;7242;50.858;6.586;2023-03-23T00:37:38;13.30;99.90
14317;DHT22;7242;50.858;6.586;2023-03-23T00:43:40;13.40;99.90
14317;DHT22;7242;50.858;6.586;2023-03-23T00:49:45;13.30;99.90
14317;DHT22;7242;50.858;6.586;2023-03-23T00:55:48;13.30;99.90
14317;DHT22;7242;50.858;6.586;2023-03-23T00:58:48;13.30;99.90
14317;DHT22;7242;50.858;6.586;2023-03-23T01:01:49;13.30;99.90
14317;DHT22;7242;50.858;6.586;2023-03-23T01:04:51;13.20;99.90
14317;DHT22;7242;50.858;6.586;2023-03-23T01:07:52;13.30;99.90
14317;DHT22;7242;50.858;6.586;2023-03-23T01:11:03;13.30;99.90
14317;DHT22;7242;50.858;6.586;2023-03-23T01:17:05;13.20;99.90
14317;DHT22;7242;50.858;6.586;2023-03-23T01:20:09;13.30;99.90
14317;DHT22;7242;50.858;6.586;2023-03-23T01:23:11;13.30;99.90
14317;DHT22;7242;50.858;6.586;2023-03-23T01:26:24;13.30;99.90
14317;DHT22;7242;50.858;6.586;2023-03-23T01:29:25;13.30;99.90
14317;DHT22;7242;50.858;6.586;2023-03-23T01:32:26;13.30;99.90
14317;DHT22;7242;50.858;6.586;2023-03-23T01:38:28;13.20;99.90
14317;DHT22;7242;50.858;6.586;2023-03-23T01:41:29;13.20;99.90
14317;DHT22;7242;50.858;6.586;2023-03-23T01:47:40;13.00;99.90
14317;DHT22;7242;50.858;6.586;2023-03-23T01:50:59;13.00;99.90
14317;DHT22;7242;50.858;6.586;2023-03-23T01:54:05;12.90;99.90
14317;DHT22;7242;50.858;6.586;2023-03-23T01:57:13;13.00;99.90
14317;DHT22;7242;50.858;6.586;2023-03-23T02:06:25;12.90;99.90
14317;DHT22;7242;50.858;6.586;2023-03-23T02:09:44;12.90;99.90
14317;DHT22;7242;50.858;6.586;2023-03-23T02:15:59;12.90;99.90
14317;DHT22;7242;50.858;6.586;2023-03-23T02:29:23;12.70;99.90
14317;DHT22;7242;50.858;6.586;2023-03-23T02:39:44;12.60;99.90
14317;DHT22;7242;50.858;6.586;2023-03-23T02:42:50;12.60;99.90
14317;DHT22;7242;50.858;6.586;2023-03-23T02:45:52;12.50;99.90
14317;DHT22;7242;50.858;6.586;2023-03-23T02:48:55;12.50;99.90
14317;DHT22;7242;50.858;6.586;2023-03-23T02:51:59;12.40;99.90
14317;DHT22;7242;50.858;6.586;2023-03-23T02:55:02;12.40;99.90
14317;DHT22;7242;50.858;6.586;2023-03-23T02:58:03;12.40;99.90
14317;DHT22;7242;50.858;6.586;2023-03-23T03:04:28;12.50;99.90
14317;DHT22;7242;50.858;6.586;2023-03-23T03:11:01;12.50;99.90
14317;DHT22;7242;50.858;6.586;2023-03-23T03:14:04;12.50;99.90
14317;DHT22;7242;50.858;6.586;2023-03-23T03:17:20;12.50;99.90
14317;DHT22;7242;50.858;6.586;2023-03-23T03:20:23;12.50;99.90
14317;DHT22;7242;50.858;6.586;2023-03-23T03:23:27;12.50;99.90
14317;DHT22;7242;50.858;6.586;2023-03-23T03:26:32;12.50;99.90
14317;DHT22;7242;50.858;6.586;2023-03-23T03:29:55;12.60;99.90
14317;DHT22;7242;50.858;6.586;2023-03-23T03:32:57;12.70;99.90
14317;DHT22;7242;50.858;6.586;2023-03-23T03:36:05;12.60;99.90
14317;DHT22;7242;50.858;6.586;2023-03-23T03:39:10;12.60;99.90
14317;DHT22;7242;50.858;6.586;2023-03-23T03:42:12;12.70;99.90
14317;DHT22;7242;50.858;6.586;2023-03-23T03:45:16;12.70;99.90
14317;DHT22;7242;50.858;6.586;2023-03-23T03:48:17;12.70;99.90
14317;DHT22;7242;50.858;6.586;2023-03-23T03:51:18;12.70;99.90
14317;DHT22;7242;50.858;6.586;2023-03-23T03:54:23;12.70;99.90
14317;DHT22;7242;50.858;6.586;2023-03-23T03:57:24;12.70;99.90
14317;DHT22;7242;50.858;6.586;2023-03-23T04:03:39;12.80;99.90
14317;DHT22;7242;50.858;6.586;2023-03-23T04:06:51;12.90;99.90
14317;DHT22;7242;50.858;6.586;2023-03-23T04:12:55;12.80;99.90
14317;DHT22;7242;50.858;6.586;2023-03-23T04:16:14;12.70;99.90
14317;DHT22;7242;50.858;6.586;2023-03-23T04:19:18;12.80;99.90
14317;DHT22;7242;50.858;6.586;2023-03-23T04:22:19;12.70;99.90
14317;DHT22;7242;50.858;6.586;2023-03-23T04:25:20;12.70;99.90
14317;DHT22;7242;50.858;6.586;2023-03-23T04:28:27;12.60;99.90
14317;DHT22;7242;50.858;6.586;2023-03-23T04:31:50;12.60;99.90
14317;DHT22;7242;50.858;6.586;2023-03-23T04:35:14;12.60;99.90
14317;DHT22;7242;50.858;6.586;2023-03-23T04:38:21;12.60;99.90
14317;DHT22;7242;50.858;6.586;2023-03-23T04:44:52;12.70;99.90
14317;DHT22;7242;50.858;6.586;2023-03-23T04:47:58;12.80;99.90
14317;DHT22;7242;50.858;6.586;2023-03-23T04:51:11;12.80;99.90
14317;DHT22;7242;50.858;6.586;2023-03-23T04:54:18;12.80;99.90
14317;DHT22;7242;50.858;6.586;2023-03-23T05:04:00;12.70;99.90
14317;DHT22;7242;50.858;6.586;2023-03-23T05:07:01;12.70;99.90
14317;DHT22;7242;50.858;6.586;2023-03-23T05:10:06;12.70;99.90
14317;DHT22;7242;50.858;6.586;2023-03-23T05:19:13;12.70;99.90
14317;DHT22;7242;50.858;6.586;2023-03-23T05:25:21;12.80;99.90
14317;DHT22;7242;50.858;6.586;2023-03-23T05:31:52;12.80;99.90
14317;DHT22;7242;50.858;6.586;2023-03-23T05:34:54;12.70;99.90
14317;DHT22;7242;50.858;6.586;2023-03-23T05:37:55;12.70;99.90
14317;DHT22;7242;50.858;6.586;2023-03-23T05:40:59;12.80;99.90
14317;DHT22;7242;50.858;6.586;2023-03-23T05:44:10;12.80;99.90
14317;DHT22;7242;50.858;6.586;2023-03-23T05:47:23;12.80;99.90
14317;DHT22;7242;50.858;6.586;2023-03-23T05:56:34;12.70;99.90
14317;DHT22;7242;50.858;6.586;2023-03-23T06:06:12;12.60;99.90
14317;DHT22;7242;50.858;6.586;2023-03-23T06:09:30;12.80;99.90
14317;DHT22;7242;50.858;6.586;2023-03-23T06:12:40;12.80;99.90
14317;DHT22;7242;50.858;6.586;2023-03-23T06:15:44;12.80;99.90
14317;DHT22;7242;50.858;6.586;2023-03-23T06:19:07;12.80;99.90
14317;DHT22;7242;50.858;6.586;2023-03-23T06:22:11;12.90;99.90
14317;DHT22;7242;50.858;6.586;2023-03-23T06:25:31;13.00;99.90
14317;DHT22;7242;50.858;6.586;2023-03-23T06:28:35;13.00;99.90
14317;DHT22;7242;50.858;6.586;2023-03-23T06:31:38;13.10;99.90
14317;DHT22;7242;50.858;6.586;2023-03-23T06:41:20;13.20;99.90
14317;DHT22;7242;50.858;6.586;2023-03-23T06:44:21;13.30;99.90
14317;DHT22;7242;50.858;6.586;2023-03-23T06:47:23;13.50;99.90
14317;DHT22;7242;50.858;6.586;2023-03-23T06:50:24;13.50;99.90
14317;DHT22;7242;50.858;6.586;2023-03-23T06:53:25;13.60;99.90
14317;DHT22;7242;50.858;6.586;2023-03-23T06:56:31;13.60;99.90
14317;DHT22;7242;50.858;6.586;2023-03-23T07:05:35;13.60;99.90
14317;DHT22;7242;50.858;6.586;2023-03-23T07:08:36;13.60;99.90
14317;DHT22;7242;50.858;6.586;2023-03-23T07:11:39;13.50;99.90
14317;DHT22;7242;50.858;6.586;2023-03-23T07:14:49;13.60;99.90
14317;DHT22;7242;50.858;6.586;2023-03-23T07:20:59;13.70;99.90
14317;DHT22;7242;50.858;6.586;2023-03-23T07:33:31;13.80;99.90
14317;DHT22;7242;50.858;6.586;2023-03-23T07:36:33;13.80;99.90
14317;DHT22;7242;50.858;6.586;2023-03-23T07:39:38;13.80;99.90
14317;DHT22;7242;50.858;6.586;2023-03-23T07:45:43;13.80;99.90
14317;DHT22;7242;50.858;6.586;2023-03-23T07:48:47;13.80;99.90
14317;DHT22;7242;50.858;6.586;2023-03-23T07:54:51;13.90;99.90
14317;DHT22;7242;50.858;6.586;2023-03-23T07:58:27;14.00;99.90
14317;DHT22;7242;50.858;6.586;2023-03-23T08:01:30;14.00;99.90
14317;DHT22;7242;50.858;6.586;2023-03-23T08:11:22;14.10;99.90
14317;DHT22;7242;50.858;6.586;2023-03-23T08:14:49;14.20;99.90
14317;DHT22;7242;50.858;6.586;2023-03-23T08:18:16;14.30;99.90
14317;DHT22;7242;50.858;6.586;2023-03-23T08:24:40;14.40;99.90
14317;DHT22;7242;50.858;6.586;2023-03-23T08:27:57;14.40;99.90
14317;DHT22;7242;50.858;6.586;2023-03-23T08:38:08;14.50;99.90
14317;DHT22;7242;50.858;6.586;2023-03-23T08:41:09;14.60;99.90
14317;DHT22;7242;50.858;6.586;2023-03-23T08:44:29;14.60;99.90
14317;DHT22;7242;50.858;6.586;2023-03-23T08:51:07;14.60;99.90
14317;DHT22;7242;50.858;6.586;2023-03-23T08:54:28;14.70;99.90
14317;DHT22;7242;50.858;6.586;2023-03-23T09:01:03;14.90;99.90
14317;DHT22;7242;50.858;6.586;2023-03-23T09:04:27;15.10;99.90
14317;DHT22;7242;50.858;6.586;2023-03-23T09:07:49;15.20;99.90
14317;DHT22;7242;50.858;6.586;2023-03-23T09:10:50;15.30;99.90
14317;DHT22;7242;50.858;6.586;2023-03-23T09:16:52;15.40;99.90
14317;DHT22;7242;50.858;6.586;2023-03-23T09:22:56;15.50;99.90
14317;DHT22;7242;50.858;6.586;2023-03-23T09:25:59;15.60;99.90
14317;DHT22;7242;50.858;6.586;2023-03-23T09:29:00;15.70;99.90
14317;DHT22;7242;50.858;6.586;2023-03-23T09:32:01;15.50;99.90
14317;DHT22;7242;50.858;6.586;2023-03-23T09:35:03;15.60;99.90
14317;DHT22;7242;50.858;6.586;2023-03-23T09:38:05;15.40;99.90
14317;DHT22;7242;50.858;6.586;2023-03-23T09:41:16;15.40;99.90
14317;DHT22;7242;50.858;6.586;2023-03-23T09:44:41;15.30;99.90
14317;DHT22;7242;50.858;6.586;2023-03-23T09:51:47;15.40;99.90
14317;DHT22;7242;50.858;6.586;2023-03-23T09:54:51;15.50;99.90
14317;DHT22;7242;50.858;6.586;2023-03-23T10:01:17;15.80;99.90
14317;DHT22;7242;50.858;6.586;2023-03-23T10:07:27;15.60;99.90
14317;DHT22;7242;50.858;6.586;2023-03-23T10:17:23;15.30;99.90
14317;DHT22;7242;50.858;6.586;2023-03-23T10:20:32;15.40;99.90
14317;DHT22;7242;50.858;6.586;2023-03-23T10:27:07;15.60;99.90
14317;DHT22;7242;50.858;6.586;2023-03-23T10:30:18;15.60;99.90
14317;DHT22;7242;50.858;6.586;2023-03-23T10:36:49;15.60;99.90
14317;DHT22;7242;50.858;6.586;2023-03-23T10:39:53;15.60;99.90
14317;DHT22;7242;50.858;6.586;2023-03-23T10:46:10;15.70;99.90
14317;DHT22;7242;50.858;6.586;2023-03-23T10:49:18;15.70;99.90
14317;DHT22;7242;50.858;6.586;2023-03-23T10:52:38;15.80;99.90
14317;DHT22;7242;50.858;6.586;2023-03-23T10:55:41;15.90;99.90
14317;DHT22;7242;50.858;6.586;2023-03-23T11:01:48;16.10;99.90
14317;DHT22;7242;50.858;6.586;2023-03-23T11:05:06;16.30;99.90
14317;DHT22;7242;50.858;6.586;2023-03-23T11:08:13;16.40;99.90
14317;DHT22;7242;50.858;6.586;2023-03-23T11:11:28;16.50;99.90
14317;DHT22;7242;50.858;6.586;2023-03-23T11:14:32;16.40;99.90
14317;DHT22;7242;50.858;6.586;2023-03-23T11:17:33;16.50;99.90
14317;DHT22;7242;50.858;6.586;2023-03-23T11:20:37;16.70;99.90
14317;DHT22;7242;50.858;6.586;2023-03-23T11:23:41;16.60;99.90
14317;DHT22;7242;50.858;6.586;2023-03-23T11:26:44;16.60;99.90
14317;DHT22;7242;50.858;6.586;2023-03-23T11:29:55;16.50;99.90
14317;DHT22;7242;50.858;6.586;2023-03-23T11:32:59;16.50;99.90
14317;DHT22;7242;50.858;6.586;2023-03-23T11:36:01;16.40;99.90
14317;DHT22;7242;50.858;6.586;2023-03-23T11:42:48;16.20;99.90
14317;DHT22;7242;50.858;6.586;2023-03-23T11:52:51;16.20;99.90
14317;DHT22;7242;50.858;6.586;2023-03-23T11:56:11;16.30;99.90
14317;DHT22;7242;50.858;6.586;2023-03-23T11:59:29;16.30;99.90
14317;DHT22;7242;50.858;6.586;2023-03-23T12:02:48;16.30;99.90
14317;DHT22;7242;50.858;6.586;2023-03-23T12:06:13;16.30;99.90
14317;DHT22;7242;50.858;6.586;2023-03-23T12:09:28;16.30;99.90
14317;DHT22;7242;50.858;6.586;2023-03-23T12:12:59;16.20;99.90
14317;DHT22;7242;50.858;6.586;2023-03-23T12:16:34;16.30;99.90
14317;DHT22;7242;50.858;6.586;2023-03-23T12:19:45;16.50;99.90
14317;DHT22;7242;50.858;6.586;2023-03-23T12:23:18;16.30;99.90
14317;DHT22;7242;50.858;6.586;2023-03-23T12:27:07;16.30;99.90
14317;DHT22;7242;50.858;6.586;2023-03-23T12:30:12;16.20;99.90
14317;DHT22;7242;50.858;6.586;2023-03-23T12:50:15;16.40;99.90
14317;DHT22;7242;50.858;6.586;2023-03-23T12:53:41;16.40;99.90
14317;DHT22;7242;50.858;6.586;2023-03-23T12:56:58;16.50;99.90
14317;DHT22;7242;50.858;6.586;2023-03-23T13:00:17;16.20;99.90
14317;DHT22;7242;50.858;6.586;2023-03-23T13:10:01;16.00;99.90
14317;DHT22;7242;50.858;6.586;2023-03-23T13:13:04;16.10;99.90
14317;DHT22;7242;50.858;6.586;2023-03-23T13:19:59;15.70;99.90
14317;DHT22;7242;50.858;6.586;2023-03-23T13:26:16;15.60;99.90
14317;DHT22;7242;50.858;6.586;2023-03-23T13:29:22;15.60;99.90
14317;DHT22;7242;50.858;6.586;2023-03-23T13:35:36;15.80;99.90
14317;DHT22;7242;50.858;6.586;2023-03-23T13:38:44;15.80;99.90
14317;DHT22;7242;50.858;6.586;2023-03-23T13:41:48;15.90;99.90
14317;DHT22;7242;50.858;6.586;2023-03-23T13:48:25;16.20;99.90
14317;DHT22;7242;50.858;6.586;2023-03-23T13:52:22;16.40;99.90
14317;DHT22;7242;50.858;6.586;2023-03-23T13:55:19;16.50;99.90
14317;DHT22;7242;50.858;6.586;2023-03-23T13:58:25;16.70;99.90
14317;DHT22;7242;50.858;6.586;2023-03-23T14:01:35;16.70;99.90
14317;DHT22;7242;50.858;6.586;2023-03-23T14:08:00;16.80;99.90
14317;DHT22;7242;50.858;6.586;2023-03-23T14:11:22;16.80;99.90
14317;DHT22;7242;50.858;6.586;2023-03-23T14:14:28;16.80;99.90
14317;DHT22;7242;50.858;6.586;2023-03-23T14:17:40;16.70;99.90
14317;DHT22;7242;50.858;6.586;2023-03-23T14:20:46;16.70;99.90
14317;DHT22;7242;50.858;6.586;2023-03-23T14:23:47;16.60;99.90
14317;DHT22;7242;50.858;6.586;2023-03-23T14:30:04;16.30;99.90
14317;DHT22;7242;50.858;6.586;2023-03-23T14:33:07;16.10;99.90
14317;DHT22;7242;50.858;6.586;2023-03-23T14:36:10;16.20;99.90
14317;DHT22;7242;50.858;6.586;2023-03-23T14:39:22;16.20;99.90
14317;DHT22;7242;50.858;6.586;2023-03-23T14:42:29;16.30;99.90
14317;DHT22;7242;50.858;6.586;2023-03-23T14:45:31;16.30;99.90
14317;DHT22;7242;50.858;6.586;2023-03-23T14:48:32;16.20;99.90
14317;DHT22;7242;50.858;6.586;2023-03-23T14:51:33;16.30;99.90
14317;DHT22;7242;50.858;6.586;2023-03-23T15:00:40;16.50;99.90
14317;DHT22;7242;50.858;6.586;2023-03-23T15:03:46;16.40;99.90
14317;DHT22;7242;50.858;6.586;2023-03-23T15:06:58;16.20;99.90
14317;DHT22;7242;50.858;6.586;2023-03-23T15:13:02;16.30;99.90
14317;DHT22;7242;50.858;6.586;2023-03-23T15:16:06;16.30;99.90
14317;DHT22;7242;50.858;6.586;2023-03-23T15:19:16;16.40;99.90
14317;DHT22;7242;50.858;6.586;2023-03-23T15:25:31;16.30;99.90
14317;DHT22;7242;50.858;6.586;2023-03-23T15:28:39;16.30;99.90
14317;DHT22;7242;50.858;6.586;2023-03-23T15:31:46;16.30;99.90
14317;DHT22;7242;50.858;6.586;2023-03-23T15:37:51;16.30;99.90
14317;DHT22;7242;50.858;6.586;2023-03-23T15:40:57;16.30;99.90
14317;DHT22;7242;50.858;6.586;2023-03-23T15:44:09;16.30;99.90
14317;DHT22;7242;50.858;6.586;2023-03-23T15:47:14;16.20;99.90
14317;DHT22;7242;50.858;6.586;2023-03-23T15:50:18;16.20;99.90
14317;DHT22;7242;50.858;6.586;2023-03-23T15:53:36;16.10;99.90
14317;DHT22;7242;50.858;6.586;2023-03-23T16:10:05;16.90;99.90
14317;DHT22;7242;50.858;6.586;2023-03-23T16:13:06;16.50;99.90
14317;DHT22;7242;50.858;6.586;2023-03-23T16:16:30;16.20;99.90
14317;DHT22;7242;50.858;6.586;2023-03-23T16:22:32;15.80;99.90
14317;DHT22;7242;50.858;6.586;2023-03-23T16:25:33;15.70;99.90
14317;DHT22;7242;50.858;6.586;2023-03-23T16:28:33;15.60;99.90
14317;DHT22;7242;50.858;6.586;2023-03-23T16:31:34;15.60;99.90
14317;DHT22;7242;50.858;6.586;2023-03-23T16:40:38;15.60;99.90
14317;DHT22;7242;50.858;6.586;2023-03-23T16:43:39;15.60;99.90
14317;DHT22;7242;50.858;6.586;2023-03-23T16:46:39;15.50;99.90
14317;DHT22;7242;50.858;6.586;2023-03-23T16:52:43;15.40;99.90
14317;DHT22;7242;50.858;6.586;2023-03-23T16:58:47;15.40;99.90
14317;DHT22;7242;50.858;6.586;2023-03-23T17:20:11;15.00;99.90
14317;DHT22;7242;50.858;6.586;2023-03-23T17:23:12;14.90;99.90
14317;DHT22;7242;50.858;6.586;2023-03-23T17:32:15;14.80;99.90
14317;DHT22;7242;50.858;6.586;2023-03-23T17:38:18;14.80;99.90
14317;DHT22;7242;50.858;6.586;2023-03-23T17:44:23;14.80;99.90
14317;DHT22;7242;50.858;6.586;2023-03-23T17:50:26;14.70;99.90
14317;DHT22;7242;50.858;6.586;2023-03-23T17:53:28;14.70;99.90
14317;DHT22;7242;50.858;6.586;2023-03-23T18:02:32;14.50;99.90
14317;DHT22;7242;50.858;6.586;2023-03-23T18:05:33;14.50;99.90
14317;DHT22;7242;50.858;6.586;2023-03-23T18:08:35;14.40;99.90
14317;DHT22;7242;50.858;6.586;2023-03-23T18:11:36;14.40;99.90
14317;DHT22;7242;50.858;6.586;2023-03-23T18:14:36;14.40;99.90
14317;DHT22;7242;50.858;6.586;2023-03-23T18:17:39;14.40;99.90
14317;DHT22;7242;50.858;6.586;2023-03-23T18:20:40;14.50;99.90
14317;DHT22;7242;50.858;6.586;2023-03-23T18:29:42;14.40;99.90
14317;DHT22;7242;50.858;6.586;2023-03-23T18:32:43;14.40;99.90
14317;DHT22;7242;50.858;6.586;2023-03-23T18:41:47;14.50;99.90
14317;DHT22;7242;50.858;6.586;2023-03-23T18:44:48;14.40;99.90
14317;DHT22;7242;50.858;6.586;2023-03-23T18:47:50;14.40;99.90
14317;DHT22;7242;50.858;6.586;2023-03-23T18:50:54;14.40;99.90
14317;DHT22;7242;50.858;6.586;2023-03-23T18:53:56;14.30;99.90
14317;DHT22;7242;50.858;6.586;2023-03-23T18:56:57;14.30;99.90
14317;DHT22;7242;50.858;6.586;2023-03-23T18:59:58;14.30;99.90
14317;DHT22;7242;50.858;6.586;2023-03-23T19:02:59;14.20;99.90
14317;DHT22;7242;50.858;6.586;2023-03-23T19:06:00;14.10;99.90
14317;DHT22;7242;50.858;6.586;2023-03-23T19:12:03;14.00;99.90
14317;DHT22;7242;50.858;6.586;2023-03-23T19:15:04;14.00;99.90
14317;DHT22;7242;50.858;6.586;2023-03-23T19:27:10;13.90;99.90
14317;DHT22;7242;50.858;6.586;2023-03-23T19:42:16;13.90;99.90
14317;DHT22;7242;50.858;6.586;2023-03-23T19:45:19;13.90;99.90
14317;DHT22;7242;50.858;6.586;2023-03-23T19:48:20;14.00;99.90
14317;DHT22;7242;50.858;6.586;2023-03-23T19:51:21;13.90;99.90
14317;DHT22;7242;50.858;6.586;2023-03-23T19:54:22;14.00;99.90
14317;DHT22;7242;50.858;6.586;2023-03-23T19:57:23;14.00;99.90
14317;DHT22;7242;50.858;6.586;2023-03-23T20:03:25;14.00;99.90
14317;DHT22;7242;50.858;6.586;2023-03-23T20:09:27;13.90;99.90
14317;DHT22;7242;50.858;6.586;2023-03-23T20:12:28;13.90;99.90
14317;DHT22;7242;50.858;6.586;2023-03-23T20:15:29;13.80;99.90
14317;DHT22;7242;50.858;6.586;2023-03-23T20:18:30;13.70;99.90
14317;DHT22;7242;50.858;6.586;2023-03-23T20:24:32;13.70;99.90
14317;DHT22;7242;50.858;6.586;2023-03-23T20:27:33;13.70;99.90
14317;DHT22;7242;50.858;6.586;2023-03-23T20:30:34;13.70;99.90
14317;DHT22;7242;50.858;6.586;2023-03-23T20:33:35;13.70;99.90
14317;DHT22;7242;50.858;6.586;2023-03-23T20:36:39;13.70;99.90
14317;DHT22;7242;50.858;6.586;2023-03-23T20:42:42;13.80;99.90
14317;DHT22;7242;50.858;6.586;2023-03-23T20:45:43;13.70;99.90
14317;DHT22;7242;50.858;6.586;2023-03-23T20:51:45;13.80;99.90
14317;DHT22;7242;50.858;6.586;2023-03-23T20:54:46;13.90;99.90
14317;DHT22;7242;50.858;6.586;2023-03-23T21:00:51;13.90;99.90
14317;DHT22;7242;50.858;6.586;2023-03-23T21:03:56;13.90;99.90
14317;DHT22;7242;50.858;6.586;2023-03-23T21:06:57;13.90;99.90
14317;DHT22;7242;50.858;6.586;2023-03-23T21:13:01;13.90;99.90
14317;DHT22;7242;50.858;6.586;2023-03-23T21:16:02;14.00;99.90
14317;DHT22;7242;50.858;6.586;2023-03-23T21:19:04;14.00;99.90
14317;DHT22;7242;50.858;6.586;2023-03-23T21:22:05;14.20;99.90
14317;DHT22;7242;50.858;6.586;2023-03-23T21:25:06;14.10;99.90
14317;DHT22;7242;50.858;6.586;2023-03-23T21:28:10;14.20;99.90
14317;DHT22;7242;50.858;6.586;2023-03-23T21:31:12;14.20;99.90
14317;DHT22;7242;50.858;6.586;2023-03-23T21:40:16;14.10;99.90
14317;DHT22;7242;50.858;6.586;2023-03-23T21:43:18;14.20;99.90
14317;DHT22;7242;50.858;6.586;2023-03-23T21:52:22;14.10;99.90
14317;DHT22;7242;50.858;6.586;2023-03-23T22:10:32;13.80;99.90
14317;DHT22;7242;50.858;6.586;2023-03-23T22:13:34;13.70;99.90
14317;DHT22;7242;50.858;6.586;2023-03-23T22:22:38;13.70;99.90
14317;DHT22;7242;50.858;6.586;2023-03-23T22:25:40;13.60;99.90
14317;DHT22;7242;50.858;6.586;2023-03-23T22:28:41;13.60;99.90
14317;DHT22;7242;50.858;6.586;2023-03-23T22:31:43;13.50;99.90
14317;DHT22;7242;50.858;6.586;2023-03-23T22:40:55;13.30;99.90
14317;DHT22;7242;50.858;6.586;2023-03-23T22:43:56;13.40;99.90
14317;DHT22;7242;50.858;6.586;2023-03-23T22:46:57;13.30;99.90
14317;DHT22;7242;50.858;6.586;2023-03-23T22:49:58;13.40;99.90
14317;DHT22;7242;50.858;6.586;2023-03-23T22:52:58;13.30;99.90
14317;DHT22;7242;50.858;6.586;2023-03-23T22:59:00;13.40;99.90
14317;DHT22;7242;50.858;6.586;2023-03-23T23:05:02;13.40;99.90
14317;DHT22;7242;50.858;6.586;2023-03-23T23:11:05;13.40;99.90
14317;DHT22;7242;50.858;6.586;2023-03-23T23:14:06;13.30;99.90
14317;DHT22;7242;50.858;6.586;2023-03-23T23:17:06;13.30;99.90
14317;DHT22;7242;50.858;6.586;2023-03-23T23:20:08;13.30;99.90
14317;DHT22;7242;50.858;6.586;2023-03-23T23:26:16;13.30;99.90
14317;DHT22;7242;50.858;6.586;2023-03-23T23:29:18;13.40;99.90
14317;DHT22;7242;50.858;6.586;2023-03-23T23:35:20;13.40;99.90
14317;DHT22;7242;50.858;6.586;2023-03-23T23:38:21;13.40;99.90
14317;DHT22;7242;50.858;6.586;2023-03-23T23:41:22;13.50;99.90
14317;DHT22;7242;50.858;6.586;2023-03-23T23:44:23;13.40;99.90
14317;DHT22;7242;50.858;6.586;2023-03-23T23:47:25;13.50;99.90
14317;DHT22;7242;50.858;6.586;2023-03-23T23:50:26;13.40;99.90
14317;DHT22;7242;50.858;6.586;2023-03-23T23:53:27;13.50;99.90
14317;DHT22;7242;50.858;6.586;2023-03-23T23:56:28;13.50;99.90
14317;DHT22;7242;50.858;6.586;2023-03-23T23:59:29;13.40;99.90
